Time;durP1;ratioP1;P1;durP2;ratioP2;P2;SDS_P1;SDS_P2;PMS_P1;PMS_P2;Temp;Humidity;BMP_temperature;BMP_pressure;BME280_temperature;BME280_humidity;BME280_pressure;Samples;Min_cycle;Max_cycle;Signal;HPM_P1;HPM_P2
2023/09/07 00:01:37;;;;;;;;;;;;;;;18.66;80.45;101857.81;5024474;28;19913;-64
2023/09/07 00:04:03;;;;;;;;;;;;;;;18.60;80.97;101845.44;5017422;28;20159;-64
2023/09/07 00:06:28;;;;;;;;;;;;;;;18.65;81.16;101851.63;5024831;28;19917;-64
2023/09/07 00:08:53;;;;;;;;;;;;;;;18.66;80.28;101841.97;5024648;28;19910;-64
2023/09/07 00:11:18;;;;;;;;;;;;;;;18.59;80.58;101849.81;5024036;28;19953;-64
2023/09/07 00:13:44;;;;;;;;;;;;;;;18.46;80.69;101840.06;5022195;28;19945;-64
2023/09/07 00:16:09;;;;;;;;;;;;;;;18.30;81.42;101849.63;5023179;28;19914;-64
2023/09/07 00:18:34;;;;;;;;;;;;;;;18.02;82.59;101844.13;5023569;28;19952;-63
2023/09/07 00:21:00;;;;;;;;;;;;;;;17.83;83.04;101843.03;5021102;28;19920;-64
2023/09/07 00:23:25;;;;;;;;;;;;;;;17.78;83.61;101842.09;5020107;28;19941;-63
2023/09/07 00:25:50;;;;;;;;;;;;;;;17.81;83.82;101846.53;5022575;28;19993;-63
2023/09/07 00:28:16;;;;;;;;;;;;;;;17.84;83.64;101836.91;5024378;28;19977;-63
2023/09/07 00:30:41;;;;;;;;;;;;;;;17.88;84.18;101836.03;5023781;28;19936;-63
2023/09/07 00:33:07;;;;;;;;;;;;;;;17.94;83.66;101827.34;5022904;28;19925;-63
2023/09/07 00:35:32;;;;;;;;;;;;;;;18.00;83.32;101834.44;5020552;28;19917;-63
2023/09/07 00:37:57;;;;;;;;;;;;;;;18.01;83.35;101833.56;5024154;28;20135;-64
2023/09/07 00:40:23;;;;;;;;;;;;;;;18.03;83.70;101829.19;5021609;28;20238;-63
2023/09/07 00:42:48;;;;;;;;;;;;;;;18.05;83.69;101830.97;5022925;28;19919;-63
2023/09/07 00:45:13;;;;;;;;;;;;;;;18.12;83.93;101824.00;5020508;28;19910;-63
2023/09/07 00:47:39;;;;;;;;;;;;;;;18.16;83.91;101819.63;5023456;28;19913;-63
2023/09/07 00:50:04;;;;;;;;;;;;;;;18.19;83.76;101841.63;5023415;28;19932;-63
2023/09/07 00:52:30;;;;;;;;;;;;;;;18.23;83.91;101829.34;5010987;28;20147;-63
2023/09/07 00:54:55;;;;;;;;;;;;;;;18.25;83.52;101833.75;5023000;28;19918;-63
2023/09/07 00:57:20;;;;;;;;;;;;;;;18.28;83.47;101834.66;5023807;28;19914;-63
2023/09/07 00:59:46;;;;;;;;;;;;;;;18.30;83.10;101833.78;5023794;28;19933;-63
2023/09/07 01:02:11;;;;;;;;;;;;;;;18.33;82.74;101836.44;5019137;28;20143;-63
2023/09/07 01:04:36;;;;;;;;;;;;;;;18.37;82.92;101837.38;5022839;28;19913;-63
2023/09/07 01:07:14;;;;;;;;;;;;;;;18.37;82.91;101829.47;5021012;28;19936;-63
2023/09/07 01:09:40;;;;;;;;;;;;;;;18.38;82.87;101833.88;5015816;28;19980;-63
2023/09/07 01:12:10;;;;;;;;;;;;;;;18.36;82.93;101828.56;5023532;28;19916;-63
2023/09/07 01:14:35;;;;;;;;;;;;;;;18.38;82.61;101831.22;5012010;28;20159;-63
2023/09/07 01:17:01;;;;;;;;;;;;;;;18.38;82.67;101826.81;5013453;28;19914;-63
2023/09/07 01:19:26;;;;;;;;;;;;;;;18.36;82.55;101828.56;5023671;28;19910;-63
2023/09/07 01:21:51;;;;;;;;;;;;;;;18.34;82.06;101826.81;5023416;28;19944;-63
2023/09/07 01:24:17;;;;;;;;;;;;;;;18.25;81.97;101820.56;5019354;28;19992;-63
2023/09/07 01:26:42;;;;;;;;;;;;;;;18.14;81.99;101826.66;5018327;28;19913;-63
2023/09/07 01:29:08;;;;;;;;;;;;;;;18.10;82.90;101825.72;5023001;28;19909;-63
2023/09/07 01:31:37;;;;;;;;;;;;;;;18.11;83.00;101826.63;5022132;28;19981;-63
2023/09/07 01:34:03;;;;;;;;;;;;;;;18.08;82.90;101819.56;5017142;28;19933;-63
2023/09/07 01:36:28;;;;;;;;;;;;;;;18.02;82.73;101820.41;5016064;28;19930;-63
2023/09/07 01:38:54;;;;;;;;;;;;;;;18.00;82.49;101816.88;5023501;28;19910;-63
2023/09/07 01:41:19;;;;;;;;;;;;;;;17.98;82.24;101820.34;5023334;28;20167;-63
2023/09/07 01:43:44;;;;;;;;;;;;;;;17.93;82.07;101816.78;5022707;28;19926;-63
2023/09/07 01:46:09;;;;;;;;;;;;;;;17.80;82.29;101810.47;5022053;28;19914;-63
2023/09/07 01:48:35;;;;;;;;;;;;;;;17.62;82.95;101811.19;5023264;28;19910;-63
2023/09/07 01:51:00;;;;;;;;;;;;;;;17.55;83.41;101815.50;5023090;28;19946;-63
2023/09/07 01:53:25;;;;;;;;;;;;;;;17.54;83.82;101814.66;5023487;28;19944;-63
2023/09/07 01:55:53;;;;;;;;;;;;;;;17.58;83.64;101814.66;5021626;28;20000;-63
2023/09/07 01:58:18;;;;;;;;;;;;;;;17.61;83.75;101815.59;5022695;28;20063;-63
2023/09/07 02:00:43;;;;;;;;;;;;;;;17.64;83.64;101809.44;5023257;28;19916;-63
2023/09/07 02:03:10;;;;;;;;;;;;;;;17.65;83.79;101814.75;5025516;28;19928;-63
2023/09/07 02:05:35;;;;;;;;;;;;;;;17.65;83.66;101822.66;5021886;28;19913;-63
2023/09/07 02:08:00;;;;;;;;;;;;;;;17.66;83.71;101815.63;5023096;28;19929;-63
2023/09/07 02:10:26;;;;;;;;;;;;;;;17.67;83.63;101814.75;5023173;28;19909;-63
2023/09/07 02:12:51;;;;;;;;;;;;;;;17.68;82.92;101819.16;5023009;28;19916;-63
2023/09/07 02:15:16;;;;;;;;;;;;;;;17.64;82.71;101812.09;5012583;28;19956;-63
2023/09/07 02:17:44;;;;;;;;;;;;;;;17.42;82.93;101809.22;5019151;28;19945;-63
2023/09/07 02:20:10;;;;;;;;;;;;;;;17.23;83.69;101812.53;5005340;28;19968;-63
2023/09/07 02:22:36;;;;;;;;;;;;;;;17.06;84.78;101813.22;5023182;28;20167;-63
2023/09/07 02:25:01;;;;;;;;;;;;;;;16.90;85.24;101808.63;5022436;28;19988;-63
2023/09/07 02:27:26;;;;;;;;;;;;;;;16.85;85.51;101814.66;5022458;28;20056;-63
2023/09/07 02:29:52;;;;;;;;;;;;;;;16.90;86.29;101801.63;5021965;28;19914;-63
2023/09/07 02:32:17;;;;;;;;;;;;;;;16.96;85.94;101806.06;5022327;28;19914;-63
2023/09/07 02:34:42;;;;;;;;;;;;;;;16.99;85.81;101803.50;5022582;28;19928;-63
2023/09/07 02:37:08;;;;;;;;;;;;;;;17.01;85.79;101807.88;5022412;28;19913;-63
2023/09/07 02:39:33;;;;;;;;;;;;;;;17.03;85.60;101803.53;5021144;28;19937;-63
2023/09/07 02:41:58;;;;;;;;;;;;;;;17.05;85.59;101814.09;5025019;28;19909;-63
2023/09/07 02:44:24;;;;;;;;;;;;;;;17.04;85.19;101815.81;5026185;28;19909;-63
2023/09/07 02:46:49;;;;;;;;;;;;;;;17.06;85.61;101807.97;5002796;28;19914;-62
2023/09/07 02:49:14;;;;;;;;;;;;;;;17.08;85.16;101802.72;5020374;28;19909;-63
2023/09/07 02:51:40;;;;;;;;;;;;;;;17.09;85.36;101805.38;5026411;28;19917;-63
2023/09/07 02:54:05;;;;;;;;;;;;;;;17.09;85.21;101805.38;5026101;28;20062;-63
2023/09/07 02:56:30;;;;;;;;;;;;;;;17.10;84.76;101803.59;5023879;28;20445;-63
2023/09/07 02:58:56;;;;;;;;;;;;;;;17.09;84.72;101801.81;5025114;28;20087;-63
2023/09/07 03:01:22;;;;;;;;;;;;;;;17.08;84.62;101800.97;5025949;28;19937;-63
2023/09/07 03:03:47;;;;;;;;;;;;;;;17.06;84.50;101794.81;5025995;28;19964;-63
2023/09/07 03:06:13;;;;;;;;;;;;;;;17.04;84.76;101791.25;5022043;28;19914;-63
2023/09/07 03:08:39;;;;;;;;;;;;;;;17.00;84.67;101800.88;5017605;28;19944;-63
2023/09/07 03:11:05;;;;;;;;;;;;;;;16.96;84.91;101798.16;5025337;28;20163;-63
2023/09/07 03:13:30;;;;;;;;;;;;;;;16.92;85.03;101804.28;5025754;28;20185;-63
2023/09/07 03:15:55;;;;;;;;;;;;;;;16.85;85.12;101806.78;5023447;28;20094;-63
2023/09/07 03:18:21;;;;;;;;;;;;;;;16.80;85.12;101800.59;5021450;28;20194;-63
2023/09/07 03:20:46;;;;;;;;;;;;;;;16.78;85.25;101809.31;5025579;28;19932;-63
2023/09/07 03:23:12;;;;;;;;;;;;;;;16.78;85.54;101804.06;5006031;28;19910;-63
2023/09/07 03:25:37;;;;;;;;;;;;;;;16.77;85.28;101803.19;5019197;28;19909;-63
2023/09/07 03:28:03;;;;;;;;;;;;;;;16.80;85.20;101805.84;5024996;28;20154;-63
2023/09/07 03:30:28;;;;;;;;;;;;;;;16.79;85.44;101797.94;5024813;28;19934;-63
2023/09/07 03:32:53;;;;;;;;;;;;;;;16.78;85.56;101798.78;5025098;28;19913;-63
2023/09/07 03:35:19;;;;;;;;;;;;;;;16.75;85.38;101801.38;5025324;28;19917;-63
2023/09/07 03:37:44;;;;;;;;;;;;;;;16.72;85.49;101802.22;5021788;28;19945;-62
2023/09/07 03:40:09;;;;;;;;;;;;;;;16.67;85.48;101809.19;5025094;28;19921;-63
2023/09/07 03:42:35;;;;;;;;;;;;;;;16.63;85.45;101808.25;5007616;28;20085;-62
2023/09/07 03:45:00;;;;;;;;;;;;;;;16.58;85.29;101814.28;5025215;28;20028;-62
2023/09/07 03:47:28;;;;;;;;;;;;;;;16.56;85.70;101811.66;5023944;28;20167;-62
2023/09/07 03:49:54;;;;;;;;;;;;;;;16.57;85.32;101820.41;5007386;28;19910;-62
2023/09/07 03:52:21;;;;;;;;;;;;;;;16.55;85.90;101809.88;5024740;28;19910;-62
2023/09/07 03:54:46;;;;;;;;;;;;;;;16.52;85.67;101813.38;5024860;28;20045;-62
2023/09/07 03:57:11;;;;;;;;;;;;;;;16.49;85.85;101813.28;5021403;28;19929;-62
2023/09/07 03:59:37;;;;;;;;;;;;;;;16.46;85.82;101822.91;5024410;28;19947;-62
2023/09/07 04:02:03;;;;;;;;;;;;;;;16.41;86.23;101820.22;5024773;28;20029;-62
2023/09/07 04:04:28;;;;;;;;;;;;;;;16.39;86.12;101821.91;5007408;28;19956;-62
2023/09/07 04:06:53;;;;;;;;;;;;;;;16.39;86.35;101818.41;5023920;28;19947;-62
2023/09/07 04:09:18;;;;;;;;;;;;;;;16.38;86.77;101812.28;5023526;28;19980;-63
2023/09/07 04:11:43;;;;;;;;;;;;;;;16.40;86.16;101807.91;5024736;28;20139;-62
2023/09/07 04:14:09;;;;;;;;;;;;;;;16.43;86.36;101813.22;5024448;28;19940;-62
2023/09/07 04:16:34;;;;;;;;;;;;;;;16.44;86.33;101807.09;5019769;28;19936;-62
2023/09/07 04:18:59;;;;;;;;;;;;;;;16.43;86.61;101804.44;5012026;28;20056;-62
2023/09/07 04:21:24;;;;;;;;;;;;;;;16.39;86.58;101805.25;5024599;28;19933;-62
2023/09/07 04:23:49;;;;;;;;;;;;;;;16.36;86.61;101805.22;5024328;28;19937;-62
2023/09/07 04:26:15;;;;;;;;;;;;;;;16.34;86.91;101807.81;5023801;28;21339;-62
2023/09/07 04:28:40;;;;;;;;;;;;;;;16.33;86.66;101808.69;5005693;28;20234;-62
2023/09/07 04:31:06;;;;;;;;;;;;;;;16.28;86.72;101813.88;5024337;28;19968;-62
2023/09/07 04:33:37;;;;;;;;;;;;;;;16.16;86.69;101816.28;5024175;28;20205;-62
2023/09/07 04:36:13;;;;;;;;;;;;;;;16.11;86.71;101817.97;5023364;28;19928;-62
2023/09/07 04:38:38;;;;;;;;;;;;;;;16.12;87.13;101820.63;5018256;28;19914;-62
2023/09/07 04:41:07;;;;;;;;;;;;;;;16.14;87.01;101826.78;5024045;28;20209;-62
2023/09/07 04:43:32;;;;;;;;;;;;;;;16.13;86.83;101825.03;5024403;28;19909;-62
2023/09/07 04:45:58;;;;;;;;;;;;;;;16.15;86.75;101823.31;5023719;28;19937;-62
2023/09/07 04:48:23;;;;;;;;;;;;;;;16.18;86.83;101817.22;5004519;28;19914;-62
2023/09/07 04:50:48;;;;;;;;;;;;;;;16.20;86.82;101818.13;5024047;28;19992;-62
2023/09/07 04:53:13;;;;;;;;;;;;;;;16.22;86.32;101819.03;5024075;28;20044;-62
2023/09/07 04:55:38;;;;;;;;;;;;;;;16.21;86.51;101811.13;5023698;28;19909;-62
2023/09/07 04:58:04;;;;;;;;;;;;;;;16.20;86.64;101817.25;5017843;28;19914;-62
2023/09/07 05:00:29;;;;;;;;;;;;;;;16.17;86.44;101816.31;5019802;28;19922;-62
2023/09/07 05:02:54;;;;;;;;;;;;;;;16.14;86.57;101821.53;5024034;28;19909;-62
2023/09/07 05:05:19;;;;;;;;;;;;;;;16.09;86.81;101823.22;5023142;28;19913;-62
2023/09/07 05:07:44;;;;;;;;;;;;;;;16.04;86.70;101826.63;5017927;28;19971;-62
2023/09/07 05:10:12;;;;;;;;;;;;;;;16.00;86.67;101823.03;5023355;28;19944;-62
2023/09/07 05:12:37;;;;;;;;;;;;;;;15.93;87.00;101826.41;5023354;28;19952;-62
2023/09/07 05:15:04;;;;;;;;;;;;;;;15.89;86.99;101829.84;5023450;28;20078;-62
2023/09/07 05:17:29;;;;;;;;;;;;;;;15.85;87.11;101828.06;5018904;28;19914;-62
2023/09/07 05:19:58;;;;;;;;;;;;;;;15.85;87.05;101834.19;5023491;28;19916;-62
2023/09/07 05:22:23;;;;;;;;;;;;;;;15.88;87.43;101842.13;5023455;28;19921;-62
2023/09/07 05:24:48;;;;;;;;;;;;;;;15.91;86.78;101836.03;5023595;28;19910;-62
2023/09/07 05:27:13;;;;;;;;;;;;;;;15.93;87.15;101836.94;5022713;28;19917;-62
2023/09/07 05:29:39;;;;;;;;;;;;;;;15.96;87.09;101831.72;5005315;28;19977;-62
2023/09/07 05:32:04;;;;;;;;;;;;;;;15.97;87.03;101836.13;5022755;28;20166;-62
2023/09/07 05:34:32;;;;;;;;;;;;;;;15.97;87.04;101842.28;5023249;28;19913;-62
2023/09/07 05:36:57;;;;;;;;;;;;;;;15.95;87.05;101841.38;5017831;28;19925;-62
2023/09/07 05:39:25;;;;;;;;;;;;;;;15.94;86.96;101841.34;5023343;28;20138;-62
2023/09/07 05:41:50;;;;;;;;;;;;;;;15.93;87.01;101842.19;5023239;28;20135;-62
2023/09/07 05:44:16;;;;;;;;;;;;;;;15.91;87.18;101851.81;5023318;28;19976;-62
2023/09/07 05:46:41;;;;;;;;;;;;;;;15.91;87.52;101849.19;5019174;28;20001;-62
2023/09/07 05:49:09;;;;;;;;;;;;;;;15.89;87.41;101856.13;5023354;28;20048;-62
2023/09/07 05:51:34;;;;;;;;;;;;;;;15.89;87.39;101850.88;5023182;28;19916;-62
2023/09/07 05:53:59;;;;;;;;;;;;;;;15.90;87.53;101857.91;5023708;28;19909;-62
2023/09/07 05:56:25;;;;;;;;;;;;;;;15.86;87.98;101856.09;5022009;28;19960;-62
2023/09/07 05:58:50;;;;;;;;;;;;;;;15.85;88.18;101855.22;5022719;28;19984;-62
2023/09/07 06:01:15;;;;;;;;;;;;;;;15.84;88.26;101849.94;5023079;28;20159;-62
2023/09/07 06:03:41;;;;;;;;;;;;;;;15.84;88.39;101866.56;5023265;28;20071;-62
2023/09/07 06:06:06;;;;;;;;;;;;;;;15.82;88.26;101860.41;5022525;28;19914;-62
2023/09/07 06:08:31;;;;;;;;;;;;;;;15.81;88.94;101870.06;5021454;28;19922;-62
2023/09/07 06:10:57;;;;;;;;;;;;;;;15.81;89.18;101869.16;5023050;28;20113;-62
2023/09/07 06:13:22;;;;;;;;;;;;;;;15.81;89.31;101867.41;5023012;28;19952;-62
2023/09/07 06:15:50;;;;;;;;;;;;;;;15.82;89.43;101877.06;5024450;28;20032;-62
2023/09/07 06:18:15;;;;;;;;;;;;;;;15.83;89.59;101872.72;5013283;28;19956;-62
2023/09/07 06:20:41;;;;;;;;;;;;;;;15.88;89.21;101875.41;5026737;28;19910;-62
2023/09/07 06:23:06;;;;;;;;;;;;;;;15.89;89.96;101877.16;5027078;28;19916;-62
2023/09/07 06:25:31;;;;;;;;;;;;;;;15.91;90.50;101883.34;5026378;28;19910;-62
2023/09/07 06:27:56;;;;;;;;;;;;;;;15.93;90.67;101882.53;5019580;28;19921;-62
2023/09/07 06:30:21;;;;;;;;;;;;;;;15.96;90.20;101879.03;5026057;28;19949;-62
2023/09/07 06:32:48;;;;;;;;;;;;;;;15.99;90.96;101884.38;5026213;28;19992;-62
2023/09/07 06:35:13;;;;;;;;;;;;;;;16.02;91.14;101878.28;5026408;28;20075;-62
2023/09/07 06:37:40;;;;;;;;;;;;;;;16.04;91.33;101881.81;5011399;28;19932;-62
2023/09/07 06:40:06;;;;;;;;;;;;;;;16.08;90.68;101887.16;5024977;28;20159;-62
2023/09/07 06:42:31;;;;;;;;;;;;;;;16.10;92.11;101887.19;5025581;28;19910;-62
2023/09/07 06:44:56;;;;;;;;;;;;;;;16.13;91.89;101876.72;5026417;28;20064;-62
2023/09/07 06:47:21;;;;;;;;;;;;;;;16.15;91.27;101881.16;5018948;28;19929;-62
2023/09/07 06:49:47;;;;;;;;;;;;;;;16.21;92.90;101884.75;5025625;28;19920;-62
2023/09/07 06:52:13;;;;;;;;;;;;;;;16.28;91.98;101884.88;5024651;28;19932;-62
2023/09/07 06:54:38;;;;;;;;;;;;;;;16.32;92.72;101881.44;5008781;28;19921;-62
2023/09/07 06:57:06;;;;;;;;;;;;;;;16.33;91.41;101877.94;5026007;28;19944;-62
2023/09/07 06:59:31;;;;;;;;;;;;;;;16.35;92.37;101883.22;5024924;28;19968;-62
2023/09/07 07:01:59;;;;;;;;;;;;;;;16.38;90.36;101879.75;5025703;28;19914;-62
2023/09/07 07:04:24;;;;;;;;;;;;;;;16.45;92.50;101884.25;5022957;28;19909;-62
2023/09/07 07:06:49;;;;;;;;;;;;;;;16.49;91.74;101881.69;5025051;28;19913;-62
2023/09/07 07:09:15;;;;;;;;;;;;;;;16.56;91.05;101887.06;5025378;28;19909;-62
2023/09/07 07:11:40;;;;;;;;;;;;;;;16.63;93.90;101891.56;5025784;28;19921;-62
2023/09/07 07:14:06;;;;;;;;;;;;;;;16.72;92.70;101896.97;5023553;28;19929;-62
2023/09/07 07:16:31;;;;;;;;;;;;;;;16.84;95.77;101894.53;5024292;28;19975;-62
2023/09/07 07:18:56;;;;;;;;;;;;;;;16.95;93.70;101892.06;5023231;28;19917;-62
2023/09/07 07:21:21;;;;;;;;;;;;;;;17.03;95.85;101890.44;5025558;28;19913;-62
2023/09/07 07:23:46;;;;;;;;;;;;;;;17.14;93.01;101890.56;5025536;28;19972;-62
2023/09/07 07:26:11;;;;;;;;;;;;;;;17.25;94.21;101896.00;5025513;28;20063;-62
2023/09/07 07:28:37;;;;;;;;;;;;;;;17.34;94.85;101892.59;5022518;28;20055;-62
2023/09/07 07:31:11;;;;;;;;;;;;;;;17.40;94.88;101887.38;5025363;28;19914;-62
2023/09/07 07:33:37;;;;;;;;;;;;;;;17.46;93.62;101890.09;5025164;28;19937;-62
2023/09/07 07:36:03;;;;;;;;;;;;;;;17.66;95.95;101892.06;5024035;28;19909;-62
2023/09/07 07:38:28;;;;;;;;;;;;;;;17.82;96.29;101890.50;5023102;28;19985;-62
2023/09/07 07:40:53;;;;;;;;;;;;;;;17.95;95.99;101888.91;5025025;28;19988;-62
2023/09/07 07:43:18;;;;;;;;;;;;;;;18.04;94.98;101894.25;5025451;28;19909;-62
2023/09/07 07:45:44;;;;;;;;;;;;;;;18.18;94.00;101894.38;5025189;28;20258;-62
2023/09/07 07:48:09;;;;;;;;;;;;;;;18.32;94.60;101890.13;5019790;28;19920;-62
2023/09/07 07:50:39;;;;;;;;;;;;;;;18.48;93.79;101884.94;5025036;28;20246;-62
2023/09/07 07:53:04;;;;;;;;;;;;;;;18.63;93.65;101878.91;5024839;28;19909;-62
2023/09/07 07:55:29;;;;;;;;;;;;;;;18.74;93.48;101877.19;5024919;28;20166;-62
2023/09/07 07:57:55;;;;;;;;;;;;;;;18.89;93.37;101882.63;5023091;28;20249;-62
2023/09/07 08:00:20;;;;;;;;;;;;;;;19.02;94.21;101882.69;5022273;28;19941;-62
2023/09/07 08:02:45;;;;;;;;;;;;;;;19.22;93.49;101878.38;5022663;28;19992;-63
2023/09/07 08:05:10;;;;;;;;;;;;;;;19.39;93.75;101874.91;5014636;28;19920;-62
2023/09/07 08:07:35;;;;;;;;;;;;;;;19.53;93.38;101875.84;5021753;28;20059;-63
2023/09/07 08:10:01;;;;;;;;;;;;;;;19.70;91.82;101872.38;5023946;28;20143;-63
2023/09/07 08:12:26;;;;;;;;;;;;;;;19.89;91.86;101873.31;5020708;28;19920;-63
2023/09/07 08:14:52;;;;;;;;;;;;;;;20.08;89.69;101863.63;5023137;28;19925;-63
2023/09/07 08:17:17;;;;;;;;;;;;;;;20.27;90.01;101864.50;5019338;28;19919;-63
2023/09/07 08:19:43;;;;;;;;;;;;;;;20.43;89.08;101860.97;5024486;28;19996;-63
2023/09/07 08:22:09;;;;;;;;;;;;;;;20.57;88.44;101860.09;5021835;28;19952;-63
2023/09/07 08:24:34;;;;;;;;;;;;;;;20.73;89.68;101855.66;5022093;28;19913;-63
2023/09/07 08:27:00;;;;;;;;;;;;;;;20.88;88.89;101852.09;5019277;28;19913;-63
2023/09/07 08:29:26;;;;;;;;;;;;;;;21.05;88.22;101850.25;5021137;28;19921;-63
2023/09/07 08:31:52;;;;;;;;;;;;;;;21.28;84.85;101844.84;5021301;28;19928;-63
2023/09/07 08:34:20;;;;;;;;;;;;;;;21.51;83.97;101843.91;5017957;28;19929;-63
2023/09/07 08:36:47;;;;;;;;;;;;;;;21.67;85.16;101845.53;5019444;28;19917;-64
2023/09/07 08:39:12;;;;;;;;;;;;;;;21.81;83.94;101834.84;5016822;28;19917;-64
2023/09/07 08:41:43;;;;;;;;;;;;;;;21.93;82.82;101841.84;5021454;28;19948;-64
2023/09/07 08:44:14;;;;;;;;;;;;;;;22.09;82.79;101839.94;5019527;28;20226;-64
2023/09/07 08:46:40;;;;;;;;;;;;;;;22.30;81.66;101832.66;5020424;28;19914;-64
2023/09/07 08:49:05;;;;;;;;;;;;;;;22.52;81.21;101841.31;5021276;28;19921;-64
2023/09/07 08:51:34;;;;;;;;;;;;;;;22.73;80.81;101845.53;5019957;28;19914;-64
2023/09/07 08:54:00;;;;;;;;;;;;;;;22.89;79.92;101835.63;5016319;28;19957;-64
2023/09/07 08:56:25;;;;;;;;;;;;;;;23.02;78.19;101839.88;5021038;28;20095;-64
2023/09/07 08:58:50;;;;;;;;;;;;;;;23.17;75.53;101835.28;5021766;28;19949;-64
2023/09/07 09:01:16;;;;;;;;;;;;;;;23.31;76.43;101837.78;5017789;28;19984;-64
2023/09/07 09:03:42;;;;;;;;;;;;;;;23.47;75.03;101838.44;5014946;28;19932;-65
2023/09/07 09:06:08;;;;;;;;;;;;;;;23.64;73.30;101825.78;4994585;28;20071;-65
2023/09/07 09:08:42;;;;;;;;;;;;;;;23.75;73.14;101823.81;5013830;28;19914;-65
2023/09/07 09:11:09;;;;;;;;;;;;;;;23.88;69.79;101826.31;5014590;28;20071;-65
2023/09/07 09:13:34;;;;;;;;;;;;;;;23.99;70.69;101827.00;5014206;28;19921;-65
2023/09/07 09:16:00;;;;;;;;;;;;;;;24.13;72.76;101833.00;5018282;28;19914;-66
2023/09/07 09:18:27;;;;;;;;;;;;;;;24.27;69.44;101826.53;5015963;28;19944;-66
2023/09/07 09:20:52;;;;;;;;;;;;;;;24.30;68.16;101829.13;5015953;28;19926;-66
2023/09/07 09:23:17;;;;;;;;;;;;;;;24.34;69.05;101828.19;5013996;28;19913;-66
2023/09/07 09:25:42;;;;;;;;;;;;;;;24.42;70.11;101828.94;5013874;28;20095;-66
2023/09/07 09:28:09;;;;;;;;;;;;;;;24.52;68.37;101826.06;5015282;28;19909;-65
2023/09/07 09:30:34;;;;;;;;;;;;;;;24.62;68.60;101819.69;5014538;28;19910;-65
2023/09/07 09:33:00;;;;;;;;;;;;;;;24.80;67.65;101824.66;5015199;28;19920;-65
2023/09/07 09:35:25;;;;;;;;;;;;;;;24.97;67.52;101818.13;5017720;28;19925;-65
2023/09/07 09:37:51;;;;;;;;;;;;;;;25.12;67.20;101817.78;5023420;28;19916;-65
2023/09/07 09:40:18;;;;;;;;;;;;;;;25.32;68.29;101819.16;5023133;28;19960;-65
2023/09/07 09:42:44;;;;;;;;;;;;;;;25.54;67.98;101816.00;5018143;28;20167;-65
2023/09/07 09:45:10;;;;;;;;;;;;;;;25.68;63.28;101806.75;5005617;28;19916;-66
2023/09/07 09:47:40;;;;;;;;;;;;;;;25.71;63.17;101804.91;5023350;28;20114;-66
2023/09/07 09:50:06;;;;;;;;;;;;;;;25.73;62.92;101806.63;5024085;28;19944;-65
2023/09/07 09:52:33;;;;;;;;;;;;;;;25.73;63.57;101808.44;5015496;28;19925;-65
2023/09/07 09:54:59;;;;;;;;;;;;;;;25.80;63.37;101805.56;5023080;28;19914;-66
2023/09/07 09:57:24;;;;;;;;;;;;;;;25.95;64.84;101809.63;5027186;28;19910;-66
2023/09/07 09:59:51;;;;;;;;;;;;;;;26.15;64.42;101801.13;5023386;28;19929;-66
2023/09/07 10:02:17;;;;;;;;;;;;;;;26.36;63.70;101805.03;5025627;28;19945;-66
2023/09/07 10:04:42;;;;;;;;;;;;;;;26.57;64.02;101804.50;5027143;28;19925;-66
2023/09/07 10:07:07;;;;;;;;;;;;;;;26.72;61.93;101802.28;5025069;28;19949;-67
2023/09/07 10:09:33;;;;;;;;;;;;;;;26.83;64.29;101801.97;5024874;28;19917;-66
2023/09/07 10:11:59;;;;;;;;;;;;;;;26.99;63.48;101802.38;5026348;28;19945;-66
2023/09/07 10:14:25;;;;;;;;;;;;;;;27.13;63.56;101804.66;5020153;28;19913;-66
2023/09/07 10:16:52;;;;;;;;;;;;;;;27.19;61.68;101801.78;5025005;28;19948;-67
2023/09/07 10:19:18;;;;;;;;;;;;;;;27.31;62.71;101805.88;5019947;28;19914;-66
2023/09/07 10:21:44;;;;;;;;;;;;;;;27.53;62.58;101806.13;5025699;28;19918;-67
2023/09/07 10:24:09;;;;;;;;;;;;;;;27.50;59.41;101800.81;5009271;28;19963;-67
2023/09/07 10:26:34;;;;;;;;;;;;;;;27.41;59.67;101801.13;5025589;28;20131;-67
2023/09/07 10:29:00;;;;;;;;;;;;;;;27.40;60.59;101804.72;5024434;28;19956;-66
2023/09/07 10:31:26;;;;;;;;;;;;;;;27.45;61.53;101793.91;5016546;28;20150;-67
2023/09/07 10:33:51;;;;;;;;;;;;;;;27.53;60.17;101787.38;5026503;28;19952;-67
2023/09/07 10:36:21;;;;;;;;;;;;;;;27.55;57.60;101785.50;5026273;28;19976;-67
2023/09/07 10:38:46;;;;;;;;;;;;;;;27.59;58.14;101788.94;5025196;28;19920;-67
2023/09/07 10:41:12;;;;;;;;;;;;;;;27.62;60.17;101772.81;5015026;28;20048;-67
2023/09/07 10:43:46;;;;;;;;;;;;;;;27.85;58.62;101780.06;5026429;28;19952;-67
2023/09/07 10:46:11;;;;;;;;;;;;;;;27.92;57.77;101768.22;5023290;28;19956;-67
2023/09/07 10:48:36;;;;;;;;;;;;;;;27.84;58.72;101767.59;5001584;28;19913;-67
2023/09/07 10:51:02;;;;;;;;;;;;;;;27.79;60.16;101766.84;5023562;28;19920;-67
2023/09/07 10:53:29;;;;;;;;;;;;;;;27.89;60.30;101768.28;5024731;28;19921;-67
2023/09/07 10:55:56;;;;;;;;;;;;;;;27.99;59.21;101768.88;5024999;28;20222;-67
2023/09/07 10:58:25;;;;;;;;;;;;;;;28.02;57.23;101763.41;5022032;28;19944;-67
2023/09/07 11:00:52;;;;;;;;;;;;;;;27.95;55.68;101759.16;5021116;28;19913;-67
2023/09/07 11:03:17;;;;;;;;;;;;;;;27.89;55.83;101756.72;5024867;28;19925;-67
2023/09/07 11:05:42;;;;;;;;;;;;;;;28.03;58.42;101756.28;5025526;28;20134;-67
2023/09/07 11:08:08;;;;;;;;;;;;;;;28.26;58.27;101753.63;5025569;28;19915;-67
2023/09/07 11:10:33;;;;;;;;;;;;;;;28.42;58.29;101753.09;5016158;28;20164;-67
2023/09/07 11:13:02;;;;;;;;;;;;;;;28.53;54.93;101750.00;5020012;28;20017;-67
2023/09/07 11:15:29;;;;;;;;;;;;;;;28.60;57.60;101757.72;5019591;28;20171;-67
2023/09/07 11:17:54;;;;;;;;;;;;;;;28.71;56.98;101759.19;5023909;28;19977;-67
2023/09/07 11:20:21;;;;;;;;;;;;;;;28.67;53.62;101760.25;5025764;28;19917;-67
2023/09/07 11:22:46;;;;;;;;;;;;;;;28.64;55.40;101752.31;5025605;28;20055;-67
2023/09/07 11:25:11;;;;;;;;;;;;;;;28.65;53.77;101754.03;5007045;28;20151;-67
2023/09/07 11:27:39;;;;;;;;;;;;;;;28.60;55.23;101759.56;5018441;28;19924;-67
2023/09/07 11:30:07;;;;;;;;;;;;;;;28.65;56.08;101754.03;5025512;28;19917;-67
2023/09/07 11:32:36;;;;;;;;;;;;;;;28.69;53.91;101758.34;5024879;28;20043;-67
2023/09/07 11:35:02;;;;;;;;;;;;;;;28.83;56.22;101756.03;5024527;28;19913;-67
2023/09/07 11:37:27;;;;;;;;;;;;;;;29.02;52.52;101753.50;5025721;28;19909;-68
2023/09/07 11:39:52;;;;;;;;;;;;;;;29.04;52.99;101750.75;5025418;28;20118;-67
2023/09/07 11:42:18;;;;;;;;;;;;;;;29.01;54.50;101753.56;5024800;28;19931;-67
2023/09/07 11:44:43;;;;;;;;;;;;;;;29.14;54.47;101758.38;5024522;28;20079;-67
2023/09/07 11:47:08;;;;;;;;;;;;;;;29.19;50.25;101738.53;5024743;28;20032;-67
2023/09/07 11:49:34;;;;;;;;;;;;;;;29.20;54.15;101742.94;5021706;28;19921;-67
2023/09/07 11:51:59;;;;;;;;;;;;;;;29.35;54.22;101738.81;5024799;28;19910;-66
2023/09/07 11:54:24;;;;;;;;;;;;;;;29.45;53.93;101734.81;5013926;28;19921;-67
2023/09/07 11:56:49;;;;;;;;;;;;;;;29.43;53.25;101739.34;5016190;28;19917;-66
2023/09/07 11:59:17;;;;;;;;;;;;;;;29.56;52.19;101735.25;5020746;28;19921;-66
2023/09/07 12:01:42;;;;;;;;;;;;;;;29.64;49.09;101732.22;5021606;28;20652;-66
2023/09/07 12:04:07;;;;;;;;;;;;;;;29.53;51.72;101726.41;5023296;28;19966;-66
2023/09/07 12:06:32;;;;;;;;;;;;;;;29.65;52.72;101725.91;5023136;28;20012;-66
2023/09/07 12:08:58;;;;;;;;;;;;;;;29.81;52.45;101728.81;5016408;28;19918;-66
2023/09/07 12:11:23;;;;;;;;;;;;;;;29.96;53.86;101725.47;5015742;28;19914;-66
2023/09/07 12:13:49;;;;;;;;;;;;;;;30.09;50.66;101725.81;5022599;28;19909;-65
2023/09/07 12:16:14;;;;;;;;;;;;;;;29.93;50.03;101720.22;5023926;28;19909;-66
2023/09/07 12:18:39;;;;;;;;;;;;;;;29.90;50.17;101720.38;5024523;28;19952;-67
2023/09/07 12:21:05;;;;;;;;;;;;;;;29.92;49.63;101720.31;5022458;28;19959;-67
2023/09/07 12:23:30;;;;;;;;;;;;;;;29.97;52.29;101719.16;5014227;28;20163;-66
2023/09/07 12:25:55;;;;;;;;;;;;;;;30.05;51.46;101723.31;5020639;28;20128;-67
2023/09/07 12:28:20;;;;;;;;;;;;;;;30.08;50.68;101718.69;5024374;28;19980;-66